createdAt,value
2019-01-08T00:00:23.413Z,8.43
2019-01-08T00:01:28.871Z,8.43
2019-01-08T00:02:34.621Z,8.45
2019-01-08T00:03:40.502Z,8.45
2019-01-08T00:04:46.250Z,8.47
2019-01-08T00:05:51.621Z,8.48
2019-01-08T00:06:57.587Z,8.49
2019-01-08T00:08:03.059Z,8.52
2019-01-08T00:09:08.573Z,8.51
2019-01-08T00:10:14.004Z,8.53
2019-01-08T00:11:19.795Z,8.52
2019-01-08T00:12:27.950Z,8.52
2019-01-08T00:13:32.967Z,8.51
2019-01-08T00:14:38.029Z,8.52
2019-01-08T00:15:43.594Z,8.53
2019-01-08T00:16:49.887Z,8.52
2019-01-08T00:17:55.383Z,8.51
2019-01-08T00:19:01.260Z,8.53
2019-01-08T00:20:06.338Z,8.55
2019-01-08T00:21:11.665Z,8.56
2019-01-08T00:22:17.468Z,8.58
2019-01-08T00:23:22.510Z,8.56
2019-01-08T00:24:27.597Z,8.58
2019-01-08T00:25:32.939Z,8.56
2019-01-08T00:26:37.928Z,8.57
2019-01-08T00:27:43.288Z,8.57
2019-01-08T00:28:48.742Z,8.59
2019-01-08T00:29:54.500Z,8.59
2019-01-08T00:31:00.257Z,8.61
2019-01-08T00:32:05.349Z,8.60
2019-01-08T00:33:10.666Z,8.56
2019-01-08T00:34:16.407Z,8.59
2019-01-08T00:35:21.607Z,8.62
2019-01-08T00:36:27.498Z,8.62
2019-01-08T00:37:37.320Z,8.61
2019-01-08T00:38:57.096Z,8.61
2019-01-08T00:41:00.162Z,8.60
2019-01-08T00:42:09.867Z,8.62
2019-01-08T00:43:22.239Z,8.64
2019-01-08T00:45:03.778Z,8.65
2019-01-08T00:46:10.623Z,8.65
2019-01-08T00:47:24.396Z,8.67
2019-01-08T00:48:48.151Z,8.70
2019-01-08T00:50:21.549Z,8.62
2019-01-08T00:51:30.291Z,8.63
2019-01-08T00:52:47.287Z,8.55
2019-01-08T00:53:53.449Z,8.49
2019-01-08T00:54:59.391Z,8.43
2019-01-08T00:56:10.694Z,8.37
2019-01-08T00:57:17.977Z,8.32
2019-01-08T00:58:23.429Z,8.31
2019-01-08T00:59:28.793Z,8.32
2019-01-08T01:00:36.928Z,8.31
2019-01-08T01:01:42.875Z,8.31
2019-01-08T01:02:49.013Z,8.30
2019-01-08T01:03:56.824Z,8.29
2019-01-08T01:05:05.224Z,8.30
2019-01-08T01:06:17.230Z,8.34
2019-01-08T01:07:29.678Z,8.32
2019-01-08T01:08:39.347Z,8.30
2019-01-08T01:09:54.431Z,8.26
2019-01-08T01:11:06.975Z,8.22
2019-01-08T01:12:17.039Z,8.18
2019-01-08T01:13:28.595Z,8.18
2019-01-08T01:14:37.488Z,8.19
2019-01-08T01:15:47.339Z,8.21
2019-01-08T01:16:52.567Z,8.16
2019-01-08T01:18:00.428Z,8.12
2019-01-08T01:19:09.411Z,8.15
2019-01-08T01:20:17.182Z,8.14
2019-01-08T01:21:27.047Z,8.10
2019-01-08T01:22:32.649Z,8.09
2019-01-08T01:23:39.987Z,8.05
2019-01-08T01:24:45.711Z,8.01
2019-01-08T01:25:55.100Z,7.93
2019-01-08T01:27:01.733Z,7.90
2019-01-08T01:28:07.923Z,7.88
2019-01-08T01:29:14.029Z,7.86
2019-01-08T01:30:19.735Z,7.90
2019-01-08T01:31:26.095Z,7.93
2019-01-08T01:32:32.411Z,7.93
2019-01-08T01:33:38.871Z,7.94
2019-01-08T01:35:03.809Z,7.96
2019-01-08T01:36:29.558Z,7.91
2019-01-08T01:37:52.413Z,7.84
2019-01-08T01:39:03.409Z,7.80
2019-01-08T01:40:12.974Z,7.76
2019-01-08T01:41:20.271Z,7.70
2019-01-08T01:42:28.587Z,7.68
2019-01-08T01:43:42.691Z,7.63
2019-01-08T01:44:52.237Z,7.55
2019-01-08T01:46:04.729Z,7.56
2019-01-08T01:47:13.906Z,7.53
2019-01-08T01:48:24.874Z,7.50
2019-01-08T01:49:31.356Z,7.47
2019-01-08T01:50:42.818Z,7.45
2019-01-08T01:51:50.960Z,7.43
2019-01-08T01:53:00.493Z,7.48
2019-01-08T01:54:07.721Z,7.43
2019-01-08T01:55:18.641Z,7.46
2019-01-08T01:56:29.184Z,7.44
2019-01-08T01:57:39.030Z,7.43
2019-01-08T01:58:46.466Z,7.43
2019-01-08T01:59:52.883Z,7.41
2019-01-08T02:00:58.817Z,7.30
2019-01-08T02:02:04.044Z,7.29
2019-01-08T02:03:09.202Z,7.25
2019-01-08T02:04:14.778Z,7.23
2019-01-08T02:05:19.860Z,7.22
2019-01-08T02:06:25.613Z,7.29
2019-01-08T02:07:31.554Z,7.24
2019-01-08T02:08:47.864Z,7.21
2019-01-08T02:09:57.566Z,7.20
2019-01-08T02:11:07.095Z,7.27
2019-01-08T02:12:17.308Z,7.23
2019-01-08T02:13:30.406Z,7.20
2019-01-08T02:14:50.216Z,7.27
2019-01-08T02:15:58.958Z,7.30
2019-01-08T02:17:06.044Z,7.37
2019-01-08T02:18:12.432Z,7.50
2019-01-08T02:19:20.040Z,7.50
2019-01-08T02:20:28.737Z,7.47
2019-01-08T02:21:35.082Z,7.45
2019-01-08T02:22:41.645Z,7.43
2019-01-08T02:23:47.726Z,7.44
2019-01-08T02:24:53.125Z,7.44
2019-01-08T02:25:59.122Z,7.51
2019-01-08T02:27:04.368Z,7.54
2019-01-08T02:28:09.773Z,7.57
2019-01-08T02:29:16.593Z,7.56
2019-01-08T02:30:22.925Z,7.57
2019-01-08T02:31:27.647Z,7.54
2019-01-08T02:32:32.940Z,7.49
2019-01-08T02:33:37.945Z,7.44
2019-01-08T02:34:43.038Z,7.45
2019-01-08T02:35:48.819Z,7.39
2019-01-08T02:36:54.129Z,7.36
2019-01-08T02:37:59.411Z,7.31
2019-01-08T02:39:05.870Z,7.27
2019-01-08T02:40:10.929Z,7.27
2019-01-08T02:41:16.378Z,7.29
2019-01-08T02:42:21.721Z,7.26
2019-01-08T02:43:26.712Z,7.22
2019-01-08T02:44:31.680Z,7.18
2019-01-08T02:45:36.973Z,7.17
2019-01-08T02:46:42.348Z,7.14
2019-01-08T02:47:47.336Z,7.08
2019-01-08T02:48:52.560Z,7.14
2019-01-08T02:49:58.344Z,7.11
2019-01-08T02:51:03.686Z,7.06
2019-01-08T02:52:09.365Z,7.04
2019-01-08T02:53:14.739Z,7.03
2019-01-08T02:54:20.124Z,7.05
2019-01-08T02:55:25.777Z,7.02
2019-01-08T02:56:30.526Z,7.04
2019-01-08T02:57:35.521Z,6.99
2019-01-08T02:58:41.222Z,7.05
2019-01-08T02:59:48.827Z,7.04
2019-01-08T03:17:22.549Z,6.86
2019-01-08T03:18:28.560Z,6.87
2019-01-08T03:19:33.969Z,6.89
2019-01-08T03:20:39.487Z,6.81
2019-01-08T03:21:44.987Z,6.88
2019-01-08T03:22:49.851Z,6.92
2019-01-08T03:23:54.968Z,6.93
2019-01-08T03:25:01.033Z,6.86
2019-01-08T03:26:06.350Z,6.92
2019-01-08T03:27:11.994Z,6.83
2019-01-08T03:35:25.495Z,6.78
2019-01-08T03:36:30.582Z,6.74
2019-01-08T03:37:35.135Z,6.69
2019-01-08T03:38:40.720Z,6.68
2019-01-08T03:39:45.548Z,6.67
2019-01-08T03:40:50.791Z,6.70
2019-01-08T03:41:57.057Z,6.69
2019-01-08T03:43:02.851Z,6.70
2019-01-08T03:44:07.711Z,6.68
2019-01-08T03:45:13.045Z,6.71
2019-01-08T03:46:18.406Z,6.69
2019-01-08T03:47:23.813Z,6.70
2019-01-08T03:48:29.898Z,6.72
2019-01-08T03:49:34.979Z,6.73
2019-01-08T03:50:43.496Z,6.76
2019-01-08T03:51:50.724Z,6.72
2019-01-08T03:52:56.915Z,6.68
2019-01-08T03:54:02.575Z,6.68
2019-01-08T03:55:08.331Z,6.65
2019-01-08T03:56:13.978Z,6.62
2019-01-08T03:57:19.272Z,6.58
2019-01-08T03:58:24.615Z,6.63
2019-01-08T03:59:30.704Z,6.61
2019-01-08T04:00:36.460Z,6.63
2019-01-08T04:01:42.344Z,6.62
2019-01-08T04:02:48.038Z,6.59
2019-01-08T04:03:53.721Z,6.64
2019-01-08T04:05:00.563Z,6.64
2019-01-08T04:06:09.265Z,6.61
2019-01-08T04:43:10.698Z,6.31
2019-01-08T04:44:16.010Z,6.37
2019-01-08T04:45:21.358Z,6.37
2019-01-08T04:46:26.213Z,6.32
2019-01-08T04:47:31.585Z,6.39
2019-01-08T04:48:37.308Z,6.37
2019-01-08T04:49:42.905Z,6.36
2019-01-08T04:50:53.639Z,6.35
2019-01-08T04:51:58.900Z,6.40
2019-01-08T04:53:03.806Z,6.37
2019-01-08T04:54:08.649Z,6.34
2019-01-08T04:55:13.581Z,6.37
2019-01-08T04:56:20.310Z,6.34
2019-01-08T04:57:26.029Z,6.31
2019-01-08T04:58:31.467Z,6.35
2019-01-08T04:59:36.561Z,6.34
2019-01-08T05:00:47.508Z,6.29
2019-01-08T05:01:52.804Z,6.34
2019-01-08T05:03:00.193Z,6.46
2019-01-08T05:04:04.842Z,6.47
2019-01-08T05:05:10.245Z,6.49
2019-01-08T05:06:16.344Z,6.48
2019-01-08T05:07:22.087Z,6.55
2019-01-08T05:08:27.776Z,6.57
2019-01-08T05:09:33.238Z,6.62
2019-01-08T05:10:39.002Z,6.68
2019-01-08T05:11:44.407Z,6.72
2019-01-08T05:12:49.442Z,6.73
2019-01-08T05:13:54.921Z,6.82
2019-01-08T05:15:00.671Z,6.81
2019-01-08T05:16:05.879Z,6.83
2019-01-08T05:17:12.346Z,6.87
2019-01-08T05:18:17.254Z,6.87
2019-01-08T05:19:22.342Z,6.86
2019-01-08T05:20:27.637Z,6.93
2019-01-08T05:21:32.887Z,6.97
2019-01-08T05:22:38.535Z,6.97
2019-01-08T05:23:44.006Z,6.99
2019-01-08T05:24:53.237Z,6.94
2019-01-08T05:26:06.516Z,6.97
2019-01-08T05:27:12.032Z,6.93
2019-01-08T05:28:17.200Z,6.94
2019-01-08T05:29:22.102Z,6.90
2019-01-08T05:30:27.339Z,6.88
2019-01-08T05:31:36.583Z,6.89
2019-01-08T05:32:41.585Z,6.82
2019-01-08T05:33:46.849Z,6.84
2019-01-08T05:34:52.193Z,6.85
2019-01-08T05:35:57.508Z,6.83
2019-01-08T05:37:02.384Z,6.72
2019-01-08T05:38:07.981Z,6.67
2019-01-08T05:39:13.429Z,6.68
2019-01-08T05:40:18.743Z,6.66
2019-01-08T05:41:23.878Z,6.66
2019-01-08T05:42:29.241Z,6.67
2019-01-08T05:43:34.405Z,6.71
2019-01-08T05:44:39.570Z,6.72
2019-01-08T05:45:44.549Z,6.73
2019-01-08T05:46:50.057Z,6.71
2019-01-08T05:47:54.850Z,6.74
2019-01-08T05:48:59.782Z,6.72
2019-01-08T05:50:05.150Z,6.71
2019-01-08T05:51:10.149Z,6.69
2019-01-08T05:52:15.674Z,6.60
2019-01-08T05:53:21.330Z,6.72
2019-01-08T05:54:26.553Z,6.75
2019-01-08T05:55:31.680Z,6.87
2019-01-08T05:56:36.313Z,6.93
2019-01-08T05:57:41.591Z,6.88
2019-01-08T05:58:47.097Z,6.89
2019-01-08T05:59:52.366Z,6.91
2019-01-08T06:00:57.582Z,6.96
2019-01-08T06:02:06.935Z,6.96
2019-01-08T06:03:12.497Z,6.92
2019-01-08T06:04:17.416Z,6.91
2019-01-08T06:05:22.698Z,6.91
2019-01-08T06:06:29.794Z,6.93
2019-01-08T06:07:34.606Z,7.13
2019-01-08T06:08:39.562Z,7.12
2019-01-08T06:09:44.832Z,7.31
2019-01-08T06:10:50.107Z,7.39
2019-01-08T06:11:55.279Z,7.33
2019-01-08T06:13:00.604Z,7.12
2019-01-08T06:14:05.147Z,7.05
2019-01-08T06:15:10.382Z,7.03
2019-01-08T06:16:15.611Z,7.02
2019-01-08T06:17:21.178Z,7.08
2019-01-08T06:18:26.481Z,7.02
2019-01-08T06:19:31.958Z,6.97
2019-01-08T06:20:36.469Z,7.02
2019-01-08T06:21:41.275Z,7.02
2019-01-08T06:22:46.118Z,7.01
2019-01-08T06:23:51.682Z,7.00
2019-01-08T06:24:56.863Z,6.97
2019-01-08T06:26:02.518Z,7.02
2019-01-08T06:27:08.168Z,7.01
2019-01-08T06:28:13.134Z,7.06
2019-01-08T06:29:18.341Z,7.07
2019-01-08T06:30:24.942Z,7.06
2019-01-08T06:31:29.962Z,7.05
2019-01-08T06:32:35.628Z,7.11
2019-01-08T06:33:40.589Z,7.11
2019-01-08T06:34:46.136Z,7.10
2019-01-08T06:35:51.654Z,7.11
2019-01-08T06:36:57.525Z,7.14
2019-01-08T06:38:02.047Z,7.14
2019-01-08T06:39:08.158Z,7.13
2019-01-08T06:40:13.291Z,7.20
2019-01-08T06:41:18.437Z,7.20
2019-01-08T06:42:24.130Z,7.21
2019-01-08T06:43:29.777Z,7.21
2019-01-08T06:44:35.057Z,7.20
2019-01-08T06:45:40.361Z,7.18
2019-01-08T06:46:45.932Z,7.22
2019-01-08T06:47:50.778Z,7.23
2019-01-08T06:48:56.027Z,7.19
2019-01-08T06:50:01.569Z,7.18
2019-01-08T06:51:06.772Z,7.19
2019-01-08T06:52:11.676Z,7.18
2019-01-08T06:53:16.986Z,7.15
2019-01-08T06:54:21.520Z,7.12
2019-01-08T06:55:26.781Z,7.05
2019-01-08T06:56:32.053Z,7.09
2019-01-08T06:57:37.386Z,7.09
2019-01-08T06:58:43.188Z,7.10
2019-01-08T06:59:48.904Z,7.12
2019-01-08T07:00:54.221Z,7.04
2019-01-08T07:01:59.106Z,7.02
2019-01-08T07:03:04.520Z,7.05
2019-01-08T07:04:10.025Z,7.07
2019-01-08T07:05:15.247Z,7.12
2019-01-08T07:06:20.883Z,7.17
2019-01-08T07:07:26.510Z,7.14
2019-01-08T07:08:31.849Z,7.19
2019-01-08T07:09:37.498Z,7.21
2019-01-08T07:10:42.326Z,7.25
2019-01-08T07:11:47.522Z,7.25
2019-01-08T07:12:52.739Z,7.20
2019-01-08T07:13:57.975Z,7.23
2019-01-08T07:15:03.250Z,7.23
2019-01-08T07:16:07.769Z,7.18
2019-01-08T07:17:13.322Z,7.15
2019-01-08T07:18:18.549Z,7.18
2019-01-08T07:19:23.758Z,7.15
2019-01-08T07:20:29.423Z,7.12
2019-01-08T07:21:34.607Z,7.10
2019-01-08T07:22:39.767Z,7.07
2019-01-08T07:23:45.011Z,7.12
2019-01-08T07:24:50.231Z,7.09
2019-01-08T07:25:56.061Z,7.12
2019-01-08T07:27:01.833Z,7.14
2019-01-08T07:28:07.095Z,7.20
2019-01-08T07:29:11.880Z,7.20
2019-01-08T07:30:16.895Z,7.17
2019-01-08T07:31:21.720Z,7.19
2019-01-08T07:32:27.298Z,7.21
2019-01-08T07:33:33.134Z,7.24
2019-01-08T07:34:37.649Z,7.20
2019-01-08T07:35:43.827Z,7.19
2019-01-08T07:36:49.351Z,7.25
2019-01-08T07:37:55.051Z,7.24
2019-01-08T07:39:00.527Z,7.22
2019-01-08T07:40:05.457Z,7.21
2019-01-08T07:41:10.648Z,7.23
2019-01-08T07:42:16.306Z,7.20
2019-01-08T07:43:21.448Z,7.18
2019-01-08T07:44:30.774Z,7.22
2019-01-08T07:45:38.560Z,7.27
2019-01-08T07:46:44.402Z,7.27
2019-01-08T07:47:49.242Z,7.29
2019-01-08T07:48:54.428Z,7.27
2019-01-08T07:49:59.967Z,7.27
2019-01-08T07:51:04.812Z,7.25
2019-01-08T07:52:09.861Z,7.27
2019-01-08T07:53:15.035Z,7.20
2019-01-08T07:54:19.984Z,7.17
2019-01-08T07:55:24.770Z,7.18
2019-01-08T07:56:29.625Z,7.20
2019-01-08T07:57:35.558Z,7.18
2019-01-08T07:58:40.795Z,7.21
2019-01-08T07:59:46.020Z,7.26
2019-01-08T08:00:50.839Z,7.21
2019-01-08T08:01:56.051Z,7.26
2019-01-08T08:03:00.880Z,7.26
2019-01-08T08:04:05.793Z,7.26
2019-01-08T08:05:10.666Z,7.27
2019-01-08T08:06:16.293Z,7.25
2019-01-08T08:07:21.292Z,7.28
2019-01-08T08:08:26.207Z,7.26
2019-01-08T08:09:31.036Z,7.27
2019-01-08T08:10:35.920Z,7.23
2019-01-08T08:11:41.518Z,7.24
2019-01-08T08:12:46.380Z,7.27
2019-01-08T08:13:51.726Z,7.28
2019-01-08T08:14:56.543Z,7.30
2019-01-08T08:16:01.399Z,7.32
2019-01-08T08:17:06.577Z,7.31
2019-01-08T08:18:12.051Z,7.31
2019-01-08T08:19:18.108Z,7.32
2019-01-08T08:20:23.480Z,7.31
2019-01-08T08:21:28.784Z,7.32
2019-01-08T08:22:33.839Z,7.31
2019-01-08T08:23:39.166Z,7.24
2019-01-08T08:24:44.507Z,7.21
2019-01-08T08:25:49.810Z,7.11
2019-01-08T08:26:55.368Z,7.15
2019-01-08T08:28:00.418Z,7.12
2019-01-08T08:29:05.789Z,7.05
2019-01-08T08:30:10.982Z,7.02
2019-01-08T08:31:16.874Z,6.99
2019-01-08T08:32:22.236Z,6.91
2019-01-08T08:33:27.841Z,6.90
2019-01-08T08:34:32.524Z,6.89
2019-01-08T08:35:37.783Z,6.85
2019-01-08T08:36:43.040Z,6.85
2019-01-08T08:37:48.506Z,6.82
2019-01-08T08:38:54.118Z,6.95
2019-01-08T08:39:59.717Z,6.99
2019-01-08T08:41:05.019Z,7.03
2019-01-08T08:42:10.590Z,6.99
2019-01-08T08:43:16.542Z,7.09
2019-01-08T08:44:22.671Z,7.30
2019-01-08T08:45:27.978Z,7.40
2019-01-08T08:46:33.701Z,7.48
2019-01-08T08:47:39.347Z,7.55
2019-01-08T08:48:44.885Z,7.48
2019-01-08T08:49:50.487Z,7.53
2019-01-08T08:50:55.263Z,7.57
2019-01-08T08:52:00.229Z,7.75
2019-01-08T08:53:05.488Z,7.91
2019-01-08T08:54:10.587Z,7.98
2019-01-08T08:55:16.127Z,7.88
2019-01-08T08:56:21.015Z,7.93
2019-01-08T08:57:25.920Z,8.08
2019-01-08T08:58:31.542Z,8.01
2019-01-08T08:59:36.878Z,7.97
2019-01-08T09:00:42.570Z,7.98
2019-01-08T09:01:48.157Z,7.92
2019-01-08T09:02:53.430Z,7.96
2019-01-08T09:03:59.321Z,7.93
2019-01-08T09:05:04.514Z,7.86
2019-01-08T09:06:09.516Z,7.86
2019-01-08T09:07:14.334Z,7.85
2019-01-08T09:08:19.254Z,7.86
2019-01-08T09:09:24.137Z,7.86
2019-01-08T09:10:31.439Z,7.81
2019-01-08T09:11:36.362Z,7.83
2019-01-08T09:12:41.650Z,7.86
2019-01-08T09:13:46.591Z,7.81
2019-01-08T09:14:51.865Z,7.71
2019-01-08T09:15:57.903Z,7.76
2019-01-08T09:17:02.457Z,7.70
2019-01-08T09:18:07.344Z,7.61
2019-01-08T09:19:12.990Z,7.59
2019-01-08T09:20:18.250Z,7.61
2019-01-08T09:21:23.136Z,7.66
2019-01-08T09:22:28.386Z,7.73
2019-01-08T09:23:33.910Z,7.71
2019-01-08T09:24:39.135Z,7.69
2019-01-08T09:25:44.104Z,7.63
2019-01-08T09:26:49.579Z,7.63
2019-01-08T09:27:54.798Z,7.65
2019-01-08T09:28:59.349Z,7.66
2019-01-08T09:30:04.969Z,7.59
2019-01-08T09:31:15.283Z,7.53
2019-01-08T09:32:16.844Z,7.55
2019-01-08T09:33:22.104Z,7.55
2019-01-08T09:34:26.956Z,7.55
2019-01-08T09:35:32.557Z,7.49
2019-01-08T09:36:37.773Z,7.48
2019-01-08T09:37:42.610Z,7.46
2019-01-08T09:38:47.529Z,7.55
2019-01-08T09:39:52.886Z,7.48
2019-01-08T09:40:58.501Z,7.41
2019-01-08T09:42:03.833Z,7.42
2019-01-08T09:43:08.709Z,7.39
2019-01-08T09:44:14.402Z,7.44
2019-01-08T09:45:19.231Z,7.43
2019-01-08T09:46:24.929Z,7.44
2019-01-08T09:47:29.881Z,7.54
2019-01-08T09:48:35.010Z,7.51
2019-01-08T09:49:40.021Z,7.54
2019-01-08T09:50:44.553Z,7.51
2019-01-08T09:51:49.873Z,7.53
2019-01-08T09:52:55.074Z,7.52
2019-01-08T09:54:00.229Z,7.50
2019-01-08T09:55:05.548Z,7.52
2019-01-08T09:56:10.372Z,7.45
2019-01-08T09:57:15.224Z,7.45
2019-01-08T09:58:19.773Z,7.47
2019-01-08T09:59:24.645Z,7.49
2019-01-08T10:00:30.038Z,7.51
2019-01-08T10:01:35.514Z,7.51
2019-01-08T10:02:41.114Z,7.52
2019-01-08T10:03:46.734Z,7.55
2019-01-08T10:04:51.639Z,7.54
2019-01-08T10:05:57.282Z,7.58
2019-01-08T10:07:02.992Z,7.61
2019-01-08T10:08:08.294Z,7.55
2019-01-08T10:09:14.008Z,7.55
2019-01-08T10:10:19.283Z,7.62
2019-01-08T10:11:24.547Z,7.74
2019-01-08T10:12:29.876Z,7.71
2019-01-08T10:13:34.718Z,7.81
2019-01-08T10:14:40.012Z,7.85
2019-01-08T10:15:45.355Z,7.84
2019-01-08T10:16:50.594Z,7.85
2019-01-08T10:17:55.532Z,7.87
2019-01-08T10:19:00.094Z,7.94
2019-01-08T10:20:05.030Z,7.90
2019-01-08T10:21:09.727Z,7.93
2019-01-08T10:22:14.983Z,7.91
2019-01-08T10:23:19.746Z,7.88
2019-01-08T10:24:24.998Z,7.86
2019-01-08T10:25:29.794Z,7.88
2019-01-08T10:26:34.666Z,7.94
2019-01-08T10:27:40.306Z,7.89
2019-01-08T10:28:45.932Z,7.91
2019-01-08T10:29:51.850Z,7.90
2019-01-08T10:30:56.704Z,7.89
2019-01-08T10:32:01.955Z,7.98
2019-01-08T10:33:06.837Z,7.96
2019-01-08T10:34:12.015Z,7.97
2019-01-08T10:35:17.640Z,7.97
2019-01-08T10:36:22.859Z,7.93
2019-01-08T10:37:28.639Z,8.02
2019-01-08T10:38:34.161Z,7.98
2019-01-08T10:39:39.181Z,8.08
2019-01-08T10:40:44.921Z,8.04
2019-01-08T10:41:50.326Z,8.04
2019-01-08T10:42:55.453Z,8.06
2019-01-08T10:44:01.011Z,8.08
2019-01-08T10:45:05.895Z,8.05
2019-01-08T10:46:10.436Z,8.07
2019-01-08T10:47:14.984Z,8.01
2019-01-08T10:48:20.115Z,8.01
2019-01-08T10:49:26.181Z,8.04
2019-01-08T10:50:31.840Z,8.03
2019-01-08T10:51:37.124Z,8.04
2019-01-08T10:52:41.948Z,7.99
2019-01-08T10:53:47.110Z,7.98
2019-01-08T10:54:52.124Z,8.00
2019-01-08T10:55:57.141Z,7.95
2019-01-08T10:57:02.322Z,7.97
2019-01-08T10:58:07.611Z,7.97
2019-01-08T10:59:13.198Z,7.98
2019-01-08T11:00:18.688Z,7.94
2019-01-08T11:01:23.582Z,7.98
2019-01-08T11:02:29.445Z,7.97
2019-01-08T11:03:34.629Z,7.95
2019-01-08T11:04:39.452Z,7.92
2019-01-08T11:05:44.852Z,8.01
2019-01-08T11:06:50.548Z,8.01
2019-01-08T11:07:55.818Z,8.00
2019-01-08T11:09:01.978Z,8.00
2019-01-08T11:10:27.015Z,7.96
2019-01-08T11:11:39.191Z,8.02
2019-01-08T11:13:00.642Z,7.98
2019-01-08T11:14:07.241Z,8.00
2019-01-08T11:15:47.689Z,7.99
2019-01-08T11:17:15.346Z,7.98
2019-01-08T11:18:22.476Z,7.95
2019-01-08T11:19:31.307Z,7.89
2019-01-08T11:23:44.522Z,7.79
2019-01-08T11:24:50.104Z,7.85
2019-01-08T11:25:57.542Z,7.89
2019-01-08T11:27:03.039Z,7.91
2019-01-08T11:28:08.693Z,7.91
2019-01-08T11:29:14.840Z,7.92
2019-01-08T11:30:20.729Z,8.03
2019-01-08T11:31:51.435Z,7.99
2019-01-08T11:32:56.083Z,8.02
2019-01-08T11:34:04.328Z,8.07
2019-01-08T11:56:07.750Z,8.15
2019-01-08T11:59:53.961Z,8.18
2019-01-08T12:03:09.915Z,8.26
2019-01-08T12:04:15.181Z,8.29
2019-01-08T12:09:38.496Z,8.24
2019-01-08T12:10:45.452Z,8.26
2019-01-08T12:22:40.975Z,8.32
2019-01-08T12:23:44.681Z,8.32
2019-01-08T12:25:15.356Z,8.38
2019-01-08T12:26:32.786Z,8.37
2019-01-08T12:27:43.223Z,8.34
2019-01-08T12:30:37.315Z,8.38
2019-01-08T12:32:22.442Z,8.36
2019-01-08T12:37:57.514Z,8.16
2019-01-08T12:39:24.470Z,8.16
2019-01-08T12:41:26.350Z,8.13
2019-01-08T12:44:05.315Z,8.24
2019-01-08T12:58:34.499Z,8.66
2019-01-08T14:09:15.648Z,7.81
2019-01-08T14:10:29.761Z,7.68
2019-01-08T14:11:34.926Z,7.54
2019-01-08T14:12:51.463Z,7.47
2019-01-08T14:13:56.812Z,7.43
2019-01-08T14:15:26.970Z,7.38
2019-01-08T14:16:32.289Z,7.41
2019-01-08T14:17:39.592Z,7.41
2019-01-08T14:19:13.010Z,7.39
2019-01-08T14:20:49.016Z,7.52
2019-01-08T14:22:18.354Z,7.65
2019-01-08T14:23:42.029Z,7.58
2019-01-08T14:25:04.075Z,7.59
2019-01-08T14:26:09.805Z,7.57
2019-01-08T14:28:00.974Z,7.61
2019-01-08T14:29:30.123Z,7.63
2019-01-08T14:34:10.183Z,7.54
2019-01-08T14:35:15.097Z,7.76
2019-01-08T14:36:24.309Z,7.84
2019-01-08T14:37:59.110Z,7.88
2019-01-08T14:39:04.975Z,7.94
2019-01-08T14:40:09.848Z,7.97
2019-01-08T14:41:15.352Z,8.00
2019-01-08T14:42:20.241Z,8.14
2019-01-08T14:43:25.988Z,8.21
2019-01-08T14:44:31.322Z,8.28
2019-01-08T14:45:36.185Z,8.30
2019-01-08T14:46:43.877Z,8.26
2019-01-08T14:47:48.723Z,8.36
2019-01-08T14:48:54.039Z,8.52
2019-01-08T14:49:58.548Z,8.62
2019-01-08T14:51:06.442Z,8.66
2019-01-08T14:52:15.075Z,8.62
2019-01-08T14:53:47.481Z,8.56
2019-01-08T14:55:43.455Z,8.36
2019-01-08T15:00:44.919Z,8.20
2019-01-08T15:18:45.087Z,7.63
2019-01-08T15:20:10.232Z,7.44
2019-01-08T15:21:26.920Z,7.34
